sensor_id;sensor_type;location;lat;lon;timestamp;P1;durP1;ratioP1;P2;durP2;ratioP2
76495;SDS011;65329;52.544;4.662;2023-05-07T00:02:08;27.92;;;18.58;;
76495;SDS011;65329;52.544;4.662;2023-05-07T00:04:37;29.15;;;19.48;;
76495;SDS011;65329;52.544;4.662;2023-05-07T00:07:05;27.48;;;18.52;;
76495;SDS011;65329;52.544;4.662;2023-05-07T00:09:32;33.28;;;19.83;;
76495;SDS011;65329;52.544;4.662;2023-05-07T00:11:59;30.13;;;20.00;;
76495;SDS011;65329;52.544;4.662;2023-05-07T00:14:26;27.70;;;19.63;;
76495;SDS011;65329;52.544;4.662;2023-05-07T00:16:53;27.05;;;19.13;;
76495;SDS011;65329;52.544;4.662;2023-05-07T00:19:20;25.42;;;18.58;;
76495;SDS011;65329;52.544;4.662;2023-05-07T00:21:47;30.90;;;20.33;;
76495;SDS011;65329;52.544;4.662;2023-05-07T00:24:14;30.52;;;19.73;;
76495;SDS011;65329;52.544;4.662;2023-05-07T00:26:41;28.38;;;19.23;;
76495;SDS011;65329;52.544;4.662;2023-05-07T00:29:08;30.77;;;19.40;;
76495;SDS011;65329;52.544;4.662;2023-05-07T00:31:35;28.42;;;18.95;;
76495;SDS011;65329;52.544;4.662;2023-05-07T00:34:02;28.50;;;19.17;;
76495;SDS011;65329;52.544;4.662;2023-05-07T00:36:29;28.17;;;19.10;;
76495;SDS011;65329;52.544;4.662;2023-05-07T00:38:56;29.38;;;19.73;;
76495;SDS011;65329;52.544;4.662;2023-05-07T00:41:26;29.70;;;19.38;;
76495;SDS011;65329;52.544;4.662;2023-05-07T00:43:53;27.05;;;18.23;;
76495;SDS011;65329;52.544;4.662;2023-05-07T00:46:20;27.85;;;19.73;;
76495;SDS011;65329;52.544;4.662;2023-05-07T00:48:47;27.35;;;18.35;;
76495;SDS011;65329;52.544;4.662;2023-05-07T00:51:16;31.70;;;20.15;;
76495;SDS011;65329;52.544;4.662;2023-05-07T00:53:44;26.98;;;19.38;;
76495;SDS011;65329;52.544;4.662;2023-05-07T00:56:11;28.15;;;18.80;;
76495;SDS011;65329;52.544;4.662;2023-05-07T00:58:38;30.27;;;20.48;;
76495;SDS011;65329;52.544;4.662;2023-05-07T01:01:07;28.98;;;19.67;;
76495;SDS011;65329;52.544;4.662;2023-05-07T01:03:34;27.75;;;19.05;;
76495;SDS011;65329;52.544;4.662;2023-05-07T01:06:01;32.03;;;19.17;;
76495;SDS011;65329;52.544;4.662;2023-05-07T01:08:30;30.27;;;19.25;;
76495;SDS011;65329;52.544;4.662;2023-05-07T01:11:00;27.73;;;18.52;;
76495;SDS011;65329;52.544;4.662;2023-05-07T01:13:28;28.15;;;17.90;;
76495;SDS011;65329;52.544;4.662;2023-05-07T01:15:55;29.75;;;19.02;;
76495;SDS011;65329;52.544;4.662;2023-05-07T01:18:23;30.48;;;19.60;;
76495;SDS011;65329;52.544;4.662;2023-05-07T01:20:51;30.23;;;20.60;;
76495;SDS011;65329;52.544;4.662;2023-05-07T01:23:18;29.27;;;19.90;;
76495;SDS011;65329;52.544;4.662;2023-05-07T01:25:55;30.83;;;21.13;;
76495;SDS011;65329;52.544;4.662;2023-05-07T01:28:25;26.40;;;19.20;;
76495;SDS011;65329;52.544;4.662;2023-05-07T01:30:56;33.30;;;20.90;;
76495;SDS011;65329;52.544;4.662;2023-05-07T01:33:28;29.90;;;19.85;;
76495;SDS011;65329;52.544;4.662;2023-05-07T01:35:58;25.25;;;17.40;;
76495;SDS011;65329;52.544;4.662;2023-05-07T01:38:28;31.17;;;19.83;;
76495;SDS011;65329;52.544;4.662;2023-05-07T01:40:56;29.35;;;19.55;;
76495;SDS011;65329;52.544;4.662;2023-05-07T01:43:24;28.23;;;19.60;;
76495;SDS011;65329;52.544;4.662;2023-05-07T01:45:51;29.45;;;21.45;;
76495;SDS011;65329;52.544;4.662;2023-05-07T01:48:20;29.30;;;21.05;;
76495;SDS011;65329;52.544;4.662;2023-05-07T01:50:47;30.42;;;20.48;;
76495;SDS011;65329;52.544;4.662;2023-05-07T01:53:15;27.65;;;20.13;;
76495;SDS011;65329;52.544;4.662;2023-05-07T01:55:42;32.33;;;21.60;;
76495;SDS011;65329;52.544;4.662;2023-05-07T01:58:09;35.83;;;21.23;;
76495;SDS011;65329;52.544;4.662;2023-05-07T02:00:37;34.17;;;21.30;;
76495;SDS011;65329;52.544;4.662;2023-05-07T02:03:04;29.40;;;21.23;;
76495;SDS011;65329;52.544;4.662;2023-05-07T02:05:41;30.27;;;20.13;;
76495;SDS011;65329;52.544;4.662;2023-05-07T02:08:16;37.88;;;23.95;;
76495;SDS011;65329;52.544;4.662;2023-05-07T02:10:43;33.38;;;21.52;;
76495;SDS011;65329;52.544;4.662;2023-05-07T02:13:10;36.70;;;23.13;;
76495;SDS011;65329;52.544;4.662;2023-05-07T02:15:37;35.60;;;23.25;;
76495;SDS011;65329;52.544;4.662;2023-05-07T02:18:07;34.58;;;23.20;;
76495;SDS011;65329;52.544;4.662;2023-05-07T02:20:35;37.97;;;24.67;;
76495;SDS011;65329;52.544;4.662;2023-05-07T02:23:02;39.45;;;25.27;;
76495;SDS011;65329;52.544;4.662;2023-05-07T02:25:29;40.78;;;26.42;;
76495;SDS011;65329;52.544;4.662;2023-05-07T02:27:57;42.97;;;26.65;;
76495;SDS011;65329;52.544;4.662;2023-05-07T02:30:36;41.28;;;27.55;;
76495;SDS011;65329;52.544;4.662;2023-05-07T02:33:04;41.60;;;26.05;;
76495;SDS011;65329;52.544;4.662;2023-05-07T02:35:31;45.00;;;28.90;;
76495;SDS011;65329;52.544;4.662;2023-05-07T02:37:58;43.38;;;27.98;;
76495;SDS011;65329;52.544;4.662;2023-05-07T02:40:25;41.55;;;27.13;;
76495;SDS011;65329;52.544;4.662;2023-05-07T02:42:52;46.42;;;28.30;;
76495;SDS011;65329;52.544;4.662;2023-05-07T02:45:20;48.67;;;27.67;;
76495;SDS011;65329;52.544;4.662;2023-05-07T02:47:48;50.40;;;28.38;;
76495;SDS011;65329;52.544;4.662;2023-05-07T02:50:15;45.90;;;29.35;;
76495;SDS011;65329;52.544;4.662;2023-05-07T02:52:42;47.25;;;28.52;;
76495;SDS011;65329;52.544;4.662;2023-05-07T02:55:09;49.08;;;28.75;;
76495;SDS011;65329;52.544;4.662;2023-05-07T02:57:37;49.13;;;29.40;;
76495;SDS011;65329;52.544;4.662;2023-05-07T03:00:15;46.80;;;29.42;;
76495;SDS011;65329;52.544;4.662;2023-05-07T03:03:19;45.83;;;28.35;;
76495;SDS011;65329;52.544;4.662;2023-05-07T03:05:46;50.33;;;30.40;;
76495;SDS011;65329;52.544;4.662;2023-05-07T03:08:13;49.35;;;28.63;;
76495;SDS011;65329;52.544;4.662;2023-05-07T03:10:40;46.85;;;29.25;;
76495;SDS011;65329;52.544;4.662;2023-05-07T03:13:07;42.88;;;27.27;;
76495;SDS011;65329;52.544;4.662;2023-05-07T03:15:34;44.75;;;27.58;;
76495;SDS011;65329;52.544;4.662;2023-05-07T03:18:02;45.78;;;27.02;;
76495;SDS011;65329;52.544;4.662;2023-05-07T03:20:30;46.08;;;27.33;;
76495;SDS011;65329;52.544;4.662;2023-05-07T03:22:59;46.60;;;28.05;;
76495;SDS011;65329;52.544;4.662;2023-05-07T03:25:27;46.10;;;27.58;;
76495;SDS011;65329;52.544;4.662;2023-05-07T03:27:54;42.85;;;26.40;;
76495;SDS011;65329;52.544;4.662;2023-05-07T03:30:26;37.50;;;23.83;;
76495;SDS011;65329;52.544;4.662;2023-05-07T03:32:53;42.42;;;25.33;;
76495;SDS011;65329;52.544;4.662;2023-05-07T03:35:20;39.40;;;22.83;;
76495;SDS011;65329;52.544;4.662;2023-05-07T03:37:47;33.20;;;21.58;;
76495;SDS011;65329;52.544;4.662;2023-05-07T03:40:15;32.63;;;21.35;;
76495;SDS011;65329;52.544;4.662;2023-05-07T03:42:47;32.47;;;20.45;;
76495;SDS011;65329;52.544;4.662;2023-05-07T03:45:15;33.65;;;21.05;;
76495;SDS011;65329;52.544;4.662;2023-05-07T03:47:47;29.25;;;19.30;;
76495;SDS011;65329;52.544;4.662;2023-05-07T03:50:17;30.08;;;20.00;;
76495;SDS011;65329;52.544;4.662;2023-05-07T03:52:43;29.85;;;20.52;;
76495;SDS011;65329;52.544;4.662;2023-05-07T03:55:12;29.98;;;19.00;;
76495;SDS011;65329;52.544;4.662;2023-05-07T03:57:45;24.98;;;17.95;;
76495;SDS011;65329;52.544;4.662;2023-05-07T04:00:12;25.63;;;18.02;;
76495;SDS011;65329;52.544;4.662;2023-05-07T04:02:45;25.88;;;17.00;;
76495;SDS011;65329;52.544;4.662;2023-05-07T04:05:16;25.88;;;18.42;;
76495;SDS011;65329;52.544;4.662;2023-05-07T04:07:46;23.23;;;17.27;;
76495;SDS011;65329;52.544;4.662;2023-05-07T04:10:18;26.63;;;16.63;;
76495;SDS011;65329;52.544;4.662;2023-05-07T04:12:47;21.38;;;15.43;;
76495;SDS011;65329;52.544;4.662;2023-05-07T04:15:18;23.35;;;15.60;;
76495;SDS011;65329;52.544;4.662;2023-05-07T04:17:46;23.73;;;14.98;;
76495;SDS011;65329;52.544;4.662;2023-05-07T04:20:15;23.55;;;15.38;;
76495;SDS011;65329;52.544;4.662;2023-05-07T04:22:48;18.60;;;14.88;;
76495;SDS011;65329;52.544;4.662;2023-05-07T04:25:16;18.02;;;14.25;;
76495;SDS011;65329;52.544;4.662;2023-05-07T04:27:43;19.52;;;13.82;;
76495;SDS011;65329;52.544;4.662;2023-05-07T04:30:11;18.35;;;13.38;;
76495;SDS011;65329;52.544;4.662;2023-05-07T04:32:39;17.13;;;12.90;;
76495;SDS011;65329;52.544;4.662;2023-05-07T04:35:07;16.58;;;12.25;;
76495;SDS011;65329;52.544;4.662;2023-05-07T04:37:34;18.42;;;11.77;;
76495;SDS011;65329;52.544;4.662;2023-05-07T04:40:03;17.85;;;12.43;;
76495;SDS011;65329;52.544;4.662;2023-05-07T04:42:30;16.83;;;12.52;;
76495;SDS011;65329;52.544;4.662;2023-05-07T04:45:00;15.48;;;12.38;;
76495;SDS011;65329;52.544;4.662;2023-05-07T04:47:29;17.42;;;11.93;;
76495;SDS011;65329;52.544;4.662;2023-05-07T04:49:59;18.23;;;12.38;;
76495;SDS011;65329;52.544;4.662;2023-05-07T04:52:26;16.08;;;11.85;;
76495;SDS011;65329;52.544;4.662;2023-05-07T04:54:53;15.55;;;11.70;;
76495;SDS011;65329;52.544;4.662;2023-05-07T04:57:20;15.55;;;11.35;;
76495;SDS011;65329;52.544;4.662;2023-05-07T04:59:48;14.45;;;11.32;;
76495;SDS011;65329;52.544;4.662;2023-05-07T05:02:16;14.85;;;11.10;;
76495;SDS011;65329;52.544;4.662;2023-05-07T05:04:47;13.90;;;10.90;;
76495;SDS011;65329;52.544;4.662;2023-05-07T05:07:14;14.85;;;10.82;;
76495;SDS011;65329;52.544;4.662;2023-05-07T05:09:41;15.88;;;10.73;;
76495;SDS011;65329;52.544;4.662;2023-05-07T05:12:09;12.90;;;9.82;;
76495;SDS011;65329;52.544;4.662;2023-05-07T05:14:37;13.02;;;10.07;;
76495;SDS011;65329;52.544;4.662;2023-05-07T05:17:05;13.30;;;9.77;;
76495;SDS011;65329;52.544;4.662;2023-05-07T05:19:32;11.93;;;9.32;;
76495;SDS011;65329;52.544;4.662;2023-05-07T05:22:00;12.05;;;9.55;;
76495;SDS011;65329;52.544;4.662;2023-05-07T05:24:28;14.15;;;9.18;;
76495;SDS011;65329;52.544;4.662;2023-05-07T05:26:55;12.75;;;9.20;;
76495;SDS011;65329;52.544;4.662;2023-05-07T05:29:23;12.80;;;9.07;;
76495;SDS011;65329;52.544;4.662;2023-05-07T05:31:50;11.75;;;9.48;;
76495;SDS011;65329;52.544;4.662;2023-05-07T05:34:17;12.93;;;8.55;;
76495;SDS011;65329;52.544;4.662;2023-05-07T05:36:46;12.93;;;8.95;;
76495;SDS011;65329;52.544;4.662;2023-05-07T05:39:14;14.48;;;9.15;;
76495;SDS011;65329;52.544;4.662;2023-05-07T05:41:41;12.73;;;9.68;;
76495;SDS011;65329;52.544;4.662;2023-05-07T05:44:08;15.48;;;10.00;;
76495;SDS011;65329;52.544;4.662;2023-05-07T05:46:36;15.23;;;10.93;;
76495;SDS011;65329;52.544;4.662;2023-05-07T05:49:04;13.38;;;10.50;;
76495;SDS011;65329;52.544;4.662;2023-05-07T05:51:31;14.63;;;11.30;;
76495;SDS011;65329;52.544;4.662;2023-05-07T05:53:58;17.00;;;12.05;;
76495;SDS011;65329;52.544;4.662;2023-05-07T05:56:26;13.93;;;11.52;;
76495;SDS011;65329;52.544;4.662;2023-05-07T05:58:53;13.75;;;11.43;;
76495;SDS011;65329;52.544;4.662;2023-05-07T06:01:20;12.70;;;9.85;;
76495;SDS011;65329;52.544;4.662;2023-05-07T06:03:50;15.35;;;10.95;;
76495;SDS011;65329;52.544;4.662;2023-05-07T06:06:17;13.52;;;11.10;;
76495;SDS011;65329;52.544;4.662;2023-05-07T06:08:45;17.95;;;11.75;;
76495;SDS011;65329;52.544;4.662;2023-05-07T06:13:45;13.73;;;11.40;;
76495;SDS011;65329;52.544;4.662;2023-05-07T06:16:12;14.85;;;11.63;;
76495;SDS011;65329;52.544;4.662;2023-05-07T06:18:40;16.65;;;11.77;;
76495;SDS011;65329;52.544;4.662;2023-05-07T06:21:07;16.48;;;12.38;;
76495;SDS011;65329;52.544;4.662;2023-05-07T06:23:34;17.15;;;12.45;;
76495;SDS011;65329;52.544;4.662;2023-05-07T06:26:03;14.57;;;12.32;;
76495;SDS011;65329;52.544;4.662;2023-05-07T06:28:35;16.20;;;12.57;;
76495;SDS011;65329;52.544;4.662;2023-05-07T06:31:11;18.13;;;13.57;;
76495;SDS011;65329;52.544;4.662;2023-05-07T06:33:40;14.88;;;12.48;;
76495;SDS011;65329;52.544;4.662;2023-05-07T06:36:07;16.23;;;12.90;;
76495;SDS011;65329;52.544;4.662;2023-05-07T06:38:35;16.48;;;12.32;;
76495;SDS011;65329;52.544;4.662;2023-05-07T06:41:02;15.82;;;12.32;;
76495;SDS011;65329;52.544;4.662;2023-05-07T06:43:29;15.43;;;12.90;;
76495;SDS011;65329;52.544;4.662;2023-05-07T06:46:12;15.25;;;10.43;;
76495;SDS011;65329;52.544;4.662;2023-05-07T06:48:39;13.20;;;10.18;;
76495;SDS011;65329;52.544;4.662;2023-05-07T06:51:06;13.00;;;10.50;;
76495;SDS011;65329;52.544;4.662;2023-05-07T06:53:34;16.55;;;10.85;;
76495;SDS011;65329;52.544;4.662;2023-05-07T06:56:02;11.25;;;9.70;;
76495;SDS011;65329;52.544;4.662;2023-05-07T06:58:29;11.70;;;9.43;;
76495;SDS011;65329;52.544;4.662;2023-05-07T07:00:56;11.93;;;10.48;;
76495;SDS011;65329;52.544;4.662;2023-05-07T07:03:23;11.27;;;10.00;;
76495;SDS011;65329;52.544;4.662;2023-05-07T07:05:52;12.48;;;10.15;;
76495;SDS011;65329;52.544;4.662;2023-05-07T07:08:19;13.18;;;9.95;;
76495;SDS011;65329;52.544;4.662;2023-05-07T07:10:47;13.90;;;10.70;;
76495;SDS011;65329;52.544;4.662;2023-05-07T07:13:15;12.27;;;10.10;;
76495;SDS011;65329;52.544;4.662;2023-05-07T07:15:42;13.32;;;11.13;;
76495;SDS011;65329;52.544;4.662;2023-05-07T07:18:09;12.70;;;10.23;;
76495;SDS011;65329;52.544;4.662;2023-05-07T07:20:37;15.60;;;11.27;;
76495;SDS011;65329;52.544;4.662;2023-05-07T07:23:06;11.80;;;10.55;;
76495;SDS011;65329;52.544;4.662;2023-05-07T07:25:35;13.85;;;11.13;;
76495;SDS011;65329;52.544;4.662;2023-05-07T07:28:06;12.57;;;10.00;;
76495;SDS011;65329;52.544;4.662;2023-05-07T07:30:35;10.75;;;9.45;;
76495;SDS011;65329;52.544;4.662;2023-05-07T07:33:02;11.48;;;9.27;;
76495;SDS011;65329;52.544;4.662;2023-05-07T07:35:32;11.45;;;9.27;;
76495;SDS011;65329;52.544;4.662;2023-05-07T07:37:59;11.45;;;9.63;;
76495;SDS011;65329;52.544;4.662;2023-05-07T07:40:26;10.00;;;9.02;;
76495;SDS011;65329;52.544;4.662;2023-05-07T07:42:53;11.30;;;9.15;;
76495;SDS011;65329;52.544;4.662;2023-05-07T07:45:21;12.15;;;9.93;;
76495;SDS011;65329;52.544;4.662;2023-05-07T07:47:49;10.07;;;8.90;;
76495;SDS011;65329;52.544;4.662;2023-05-07T07:50:16;10.13;;;9.10;;
76495;SDS011;65329;52.544;4.662;2023-05-07T07:53:01;9.98;;;8.80;;
76495;SDS011;65329;52.544;4.662;2023-05-07T07:55:28;9.63;;;8.73;;
76495;SDS011;65329;52.544;4.662;2023-05-07T07:57:55;9.80;;;8.80;;
76495;SDS011;65329;52.544;4.662;2023-05-07T08:00:23;9.75;;;8.82;;
76495;SDS011;65329;52.544;4.662;2023-05-07T08:02:53;10.82;;;9.02;;
76495;SDS011;65329;52.544;4.662;2023-05-07T08:05:26;11.15;;;9.43;;
76495;SDS011;65329;52.544;4.662;2023-05-07T08:07:53;10.10;;;9.10;;
76495;SDS011;65329;52.544;4.662;2023-05-07T08:10:25;10.48;;;9.38;;
76495;SDS011;65329;52.544;4.662;2023-05-07T08:13:00;11.50;;;9.63;;
76495;SDS011;65329;52.544;4.662;2023-05-07T08:15:29;9.93;;;8.93;;
76495;SDS011;65329;52.544;4.662;2023-05-07T08:17:56;12.55;;;8.93;;
76495;SDS011;65329;52.544;4.662;2023-05-07T08:20:29;10.07;;;8.93;;
76495;SDS011;65329;52.544;4.662;2023-05-07T08:22:57;10.02;;;8.95;;
76495;SDS011;65329;52.544;4.662;2023-05-07T08:25:25;10.32;;;9.18;;
76495;SDS011;65329;52.544;4.662;2023-05-07T08:27:53;10.10;;;8.93;;
76495;SDS011;65329;52.544;4.662;2023-05-07T08:30:20;10.63;;;9.50;;
76495;SDS011;65329;52.544;4.662;2023-05-07T08:32:48;10.23;;;9.15;;
76495;SDS011;65329;52.544;4.662;2023-05-07T08:35:14;10.27;;;9.20;;
76495;SDS011;65329;52.544;4.662;2023-05-07T08:37:41;10.07;;;9.02;;
76495;SDS011;65329;52.544;4.662;2023-05-07T08:40:08;10.77;;;9.70;;
76495;SDS011;65329;52.544;4.662;2023-05-07T08:42:39;9.70;;;8.75;;
76495;SDS011;65329;52.544;4.662;2023-05-07T08:45:08;9.68;;;7.80;;
76495;SDS011;65329;52.544;4.662;2023-05-07T08:47:43;9.55;;;8.30;;
76495;SDS011;65329;52.544;4.662;2023-05-07T08:50:15;10.48;;;8.32;;
76495;SDS011;65329;52.544;4.662;2023-05-07T08:52:43;10.07;;;8.32;;
76495;SDS011;65329;52.544;4.662;2023-05-07T08:55:10;10.98;;;8.60;;
76495;SDS011;65329;52.544;4.662;2023-05-07T08:57:42;11.45;;;8.57;;
76495;SDS011;65329;52.544;4.662;2023-05-07T09:00:10;8.52;;;7.70;;
76495;SDS011;65329;52.544;4.662;2023-05-07T09:02:38;9.63;;;8.65;;
76495;SDS011;65329;52.544;4.662;2023-05-07T09:05:07;8.80;;;7.93;;
76495;SDS011;65329;52.544;4.662;2023-05-07T09:07:35;9.85;;;8.27;;
76495;SDS011;65329;52.544;4.662;2023-05-07T09:10:05;9.75;;;8.80;;
76495;SDS011;65329;52.544;4.662;2023-05-07T09:12:35;8.30;;;7.50;;
76495;SDS011;65329;52.544;4.662;2023-05-07T09:15:04;10.93;;;8.98;;
76495;SDS011;65329;52.544;4.662;2023-05-07T09:17:32;9.77;;;8.80;;
76495;SDS011;65329;52.544;4.662;2023-05-07T09:20:06;10.85;;;8.35;;
76495;SDS011;65329;52.544;4.662;2023-05-07T09:25:08;10.50;;;7.60;;
76495;SDS011;65329;52.544;4.662;2023-05-07T09:27:37;9.43;;;7.78;;
76495;SDS011;65329;52.544;4.662;2023-05-07T09:30:05;8.48;;;7.47;;
76495;SDS011;65329;52.544;4.662;2023-05-07T09:32:34;9.25;;;7.57;;
76495;SDS011;65329;52.544;4.662;2023-05-07T09:35:06;8.70;;;7.47;;
76495;SDS011;65329;52.544;4.662;2023-05-07T09:37:40;8.82;;;7.85;;
76495;SDS011;65329;52.544;4.662;2023-05-07T09:40:08;11.00;;;6.65;;
76495;SDS011;65329;52.544;4.662;2023-05-07T09:42:46;5.85;;;4.43;;
76495;SDS011;65329;52.544;4.662;2023-05-07T09:45:14;5.93;;;4.85;;
76495;SDS011;65329;52.544;4.662;2023-05-07T09:47:42;7.43;;;6.13;;
76495;SDS011;65329;52.544;4.662;2023-05-07T09:50:14;8.18;;;6.65;;
76495;SDS011;65329;52.544;4.662;2023-05-07T09:52:43;8.80;;;7.80;;
76495;SDS011;65329;52.544;4.662;2023-05-07T09:55:11;9.82;;;7.63;;
76495;SDS011;65329;52.544;4.662;2023-05-07T09:57:39;9.32;;;6.60;;
76495;SDS011;65329;52.544;4.662;2023-05-07T10:00:08;8.55;;;6.95;;
76495;SDS011;65329;52.544;4.662;2023-05-07T10:02:51;8.50;;;7.70;;
76495;SDS011;65329;52.544;4.662;2023-05-07T10:05:29;9.32;;;6.55;;
76495;SDS011;65329;52.544;4.662;2023-05-07T10:07:58;9.10;;;6.18;;
76495;SDS011;65329;52.544;4.662;2023-05-07T10:10:32;8.80;;;7.28;;
76495;SDS011;65329;52.544;4.662;2023-05-07T10:13:01;7.20;;;6.25;;
76495;SDS011;65329;52.544;4.662;2023-05-07T10:15:33;11.20;;;7.40;;
76495;SDS011;65329;52.544;4.662;2023-05-07T10:18:03;11.00;;;7.32;;
76495;SDS011;65329;52.544;4.662;2023-05-07T10:20:31;8.98;;;8.05;;
76495;SDS011;65329;52.544;4.662;2023-05-07T10:23:00;9.40;;;7.85;;
76495;SDS011;65329;52.544;4.662;2023-05-07T10:25:37;9.15;;;7.07;;
76495;SDS011;65329;52.544;4.662;2023-05-07T10:28:13;7.25;;;6.50;;
76495;SDS011;65329;52.544;4.662;2023-05-07T10:33:15;7.38;;;6.05;;
76495;SDS011;65329;52.544;4.662;2023-05-07T10:35:46;7.50;;;6.65;;
76495;SDS011;65329;52.544;4.662;2023-05-07T10:38:16;8.02;;;6.25;;
76495;SDS011;65329;52.544;4.662;2023-05-07T10:40:45;7.85;;;6.97;;
76495;SDS011;65329;52.544;4.662;2023-05-07T10:43:15;9.35;;;6.55;;
76495;SDS011;65329;52.544;4.662;2023-05-07T10:46:08;8.27;;;6.60;;
76495;SDS011;65329;52.544;4.662;2023-05-07T10:54:49;9.88;;;8.85;;
76495;SDS011;65329;52.544;4.662;2023-05-07T10:57:43;12.25;;;9.43;;
76495;SDS011;65329;52.544;4.662;2023-05-07T11:03:07;12.82;;;10.48;;
76495;SDS011;65329;52.544;4.662;2023-05-07T11:14:46;10.20;;;8.52;;
76495;SDS011;65329;52.544;4.662;2023-05-07T11:17:18;9.07;;;8.23;;
76495;SDS011;65329;52.544;4.662;2023-05-07T11:19:52;10.07;;;8.82;;
76495;SDS011;65329;52.544;4.662;2023-05-07T11:25:08;11.00;;;8.65;;
76495;SDS011;65329;52.544;4.662;2023-05-07T11:27:36;8.93;;;8.00;;
76495;SDS011;65329;52.544;4.662;2023-05-07T11:30:03;9.65;;;8.18;;
76495;SDS011;65329;52.544;4.662;2023-05-07T11:32:31;10.80;;;9.27;;
76495;SDS011;65329;52.544;4.662;2023-05-07T11:35:00;16.40;;;9.23;;
76495;SDS011;65329;52.544;4.662;2023-05-07T11:37:27;13.35;;;10.18;;
76495;SDS011;65329;52.544;4.662;2023-05-07T11:40:06;16.13;;;11.57;;
76495;SDS011;65329;52.544;4.662;2023-05-07T11:42:37;15.55;;;11.85;;
76495;SDS011;65329;52.544;4.662;2023-05-07T11:45:10;17.00;;;11.68;;
76495;SDS011;65329;52.544;4.662;2023-05-07T11:47:37;15.25;;;11.02;;
76495;SDS011;65329;52.544;4.662;2023-05-07T11:50:08;13.38;;;11.82;;
76495;SDS011;65329;52.544;4.662;2023-05-07T11:52:37;13.05;;;11.32;;
76495;SDS011;65329;52.544;4.662;2023-05-07T11:55:06;14.25;;;11.32;;
76495;SDS011;65329;52.544;4.662;2023-05-07T11:57:34;11.50;;;9.85;;
76495;SDS011;65329;52.544;4.662;2023-05-07T12:02:42;16.25;;;12.30;;
76495;SDS011;65329;52.544;4.662;2023-05-07T12:05:09;17.85;;;13.82;;
76495;SDS011;65329;52.544;4.662;2023-05-07T12:07:38;22.63;;;16.08;;
76495;SDS011;65329;52.544;4.662;2023-05-07T12:10:05;19.65;;;15.75;;
76495;SDS011;65329;52.544;4.662;2023-05-07T12:12:39;18.30;;;15.10;;
76495;SDS011;65329;52.544;4.662;2023-05-07T12:15:15;18.95;;;16.00;;
76495;SDS011;65329;52.544;4.662;2023-05-07T12:17:43;21.55;;;17.27;;
76495;SDS011;65329;52.544;4.662;2023-05-07T12:20:10;24.17;;;17.30;;
76495;SDS011;65329;52.544;4.662;2023-05-07T12:22:37;21.80;;;17.92;;
76495;SDS011;65329;52.544;4.662;2023-05-07T12:25:04;24.17;;;20.08;;
76495;SDS011;65329;52.544;4.662;2023-05-07T12:27:36;23.27;;;19.55;;
76495;SDS011;65329;52.544;4.662;2023-05-07T12:30:03;25.33;;;19.73;;
76495;SDS011;65329;52.544;4.662;2023-05-07T12:32:32;25.08;;;19.38;;
76495;SDS011;65329;52.544;4.662;2023-05-07T12:35:03;24.27;;;19.40;;
76495;SDS011;65329;52.544;4.662;2023-05-07T12:37:32;22.92;;;18.75;;
76495;SDS011;65329;52.544;4.662;2023-05-07T12:42:40;27.30;;;18.52;;
76495;SDS011;65329;52.544;4.662;2023-05-07T12:45:07;23.10;;;17.38;;
76495;SDS011;65329;52.544;4.662;2023-05-07T12:47:44;23.45;;;19.05;;
76495;SDS011;65329;52.544;4.662;2023-05-07T12:50:12;23.88;;;18.27;;
76495;SDS011;65329;52.544;4.662;2023-05-07T12:52:40;22.58;;;18.30;;
76495;SDS011;65329;52.544;4.662;2023-05-07T12:55:07;23.80;;;19.33;;
76495;SDS011;65329;52.544;4.662;2023-05-07T12:57:39;24.60;;;18.38;;
76495;SDS011;65329;52.544;4.662;2023-05-07T13:00:07;26.75;;;19.08;;
76495;SDS011;65329;52.544;4.662;2023-05-07T13:02:39;25.67;;;18.20;;
76495;SDS011;65329;52.544;4.662;2023-05-07T13:05:07;25.17;;;19.00;;
76495;SDS011;65329;52.544;4.662;2023-05-07T13:07:36;27.60;;;19.00;;
76495;SDS011;65329;52.544;4.662;2023-05-07T13:10:04;24.67;;;17.98;;
76495;SDS011;65329;52.544;4.662;2023-05-07T13:12:31;27.92;;;20.20;;
76495;SDS011;65329;52.544;4.662;2023-05-07T13:14:58;24.73;;;18.50;;
76495;SDS011;65329;52.544;4.662;2023-05-07T13:17:25;23.30;;;16.23;;
76495;SDS011;65329;52.544;4.662;2023-05-07T13:19:52;13.48;;;9.50;;
76495;SDS011;65329;52.544;4.662;2023-05-07T13:22:19;11.77;;;8.38;;
76495;SDS011;65329;52.544;4.662;2023-05-07T13:24:46;14.90;;;10.13;;
76495;SDS011;65329;52.544;4.662;2023-05-07T13:27:13;14.05;;;11.45;;
76495;SDS011;65329;52.544;4.662;2023-05-07T13:29:39;14.73;;;10.27;;
76495;SDS011;65329;52.544;4.662;2023-05-07T13:32:06;14.77;;;10.52;;
76495;SDS011;65329;52.544;4.662;2023-05-07T13:34:34;13.60;;;9.90;;
76495;SDS011;65329;52.544;4.662;2023-05-07T13:37:00;12.02;;;10.43;;
76495;SDS011;65329;52.544;4.662;2023-05-07T13:39:27;18.55;;;12.93;;
76495;SDS011;65329;52.544;4.662;2023-05-07T13:41:55;17.65;;;14.40;;
76495;SDS011;65329;52.544;4.662;2023-05-07T13:44:22;19.95;;;14.15;;
76495;SDS011;65329;52.544;4.662;2023-05-07T13:49:20;22.13;;;15.60;;
76495;SDS011;65329;52.544;4.662;2023-05-07T13:51:47;18.85;;;14.60;;
76495;SDS011;65329;52.544;4.662;2023-05-07T13:54:14;17.98;;;14.65;;
76495;SDS011;65329;52.544;4.662;2023-05-07T13:56:41;18.83;;;14.55;;
76495;SDS011;65329;52.544;4.662;2023-05-07T13:59:08;21.13;;;16.23;;
76495;SDS011;65329;52.544;4.662;2023-05-07T14:01:34;18.63;;;14.75;;
76495;SDS011;65329;52.544;4.662;2023-05-07T14:04:02;18.65;;;14.38;;
76495;SDS011;65329;52.544;4.662;2023-05-07T14:06:31;17.33;;;13.93;;
76495;SDS011;65329;52.544;4.662;2023-05-07T14:08:58;14.75;;;12.80;;
76495;SDS011;65329;52.544;4.662;2023-05-07T14:11:24;15.90;;;12.88;;
76495;SDS011;65329;52.544;4.662;2023-05-07T14:13:51;15.02;;;11.82;;
76495;SDS011;65329;52.544;4.662;2023-05-07T14:16:18;22.60;;;16.08;;
76495;SDS011;65329;52.544;4.662;2023-05-07T14:18:45;26.58;;;18.95;;
76495;SDS011;65329;52.544;4.662;2023-05-07T14:21:19;24.02;;;16.85;;
76495;SDS011;65329;52.544;4.662;2023-05-07T14:23:46;23.50;;;17.10;;
76495;SDS011;65329;52.544;4.662;2023-05-07T14:26:24;26.17;;;18.17;;
76495;SDS011;65329;52.544;4.662;2023-05-07T14:28:50;22.80;;;17.20;;
76495;SDS011;65329;52.544;4.662;2023-05-07T14:31:17;23.58;;;18.25;;
76495;SDS011;65329;52.544;4.662;2023-05-07T14:33:44;31.05;;;20.45;;
76495;SDS011;65329;52.544;4.662;2023-05-07T14:36:12;23.08;;;16.98;;
76495;SDS011;65329;52.544;4.662;2023-05-07T14:38:39;22.90;;;17.05;;
76495;SDS011;65329;52.544;4.662;2023-05-07T14:41:06;20.48;;;15.10;;
76495;SDS011;65329;52.544;4.662;2023-05-07T14:43:33;19.60;;;14.55;;
76495;SDS011;65329;52.544;4.662;2023-05-07T14:46:00;20.23;;;14.48;;
76495;SDS011;65329;52.544;4.662;2023-05-07T14:48:27;20.10;;;16.27;;
76495;SDS011;65329;52.544;4.662;2023-05-07T14:50:54;20.95;;;15.52;;
76495;SDS011;65329;52.544;4.662;2023-05-07T14:53:21;17.05;;;12.13;;
76495;SDS011;65329;52.544;4.662;2023-05-07T14:55:48;16.95;;;13.48;;
76495;SDS011;65329;52.544;4.662;2023-05-07T14:58:17;22.15;;;13.80;;
76495;SDS011;65329;52.544;4.662;2023-05-07T15:00:44;19.45;;;15.10;;
76495;SDS011;65329;52.544;4.662;2023-05-07T15:03:20;21.58;;;14.65;;
76495;SDS011;65329;52.544;4.662;2023-05-07T15:05:48;19.30;;;14.00;;
76495;SDS011;65329;52.544;4.662;2023-05-07T15:08:17;18.55;;;14.10;;
76495;SDS011;65329;52.544;4.662;2023-05-07T15:10:45;19.33;;;15.15;;
76495;SDS011;65329;52.544;4.662;2023-05-07T15:13:13;20.45;;;15.00;;